sensor_id;sensor_type;location;lat;lon;timestamp;pressure;altitude;pressure_sealevel;temperature;humidity
79118;BME280;68523;51.336;-0.846;2024-01-10T00:00:00;101905.0;;;0.61;83.5
79118;BME280;68523;51.336;-0.846;2024-01-10T00:03:00;101895.0;;;0.56;83.8
79118;BME280;68523;51.336;-0.846;2024-01-10T00:06:00;101895.0;;;0.72;83.2
79118;BME280;68523;51.336;-0.846;2024-01-10T00:09:00;101895.0;;;0.61;83.7
79118;BME280;68523;51.336;-0.846;2024-01-10T00:12:00;101895.0;;;0.53;83.9
79118;BME280;68523;51.336;-0.846;2024-01-10T00:15:00;101895.0;;;0.46;84.3
79118;BME280;68523;51.336;-0.846;2024-01-10T00:18:00;101895.0;;;0.51;84.1
79118;BME280;68523;51.336;-0.846;2024-01-10T00:21:00;101895.0;;;0.45;84.1
79118;BME280;68523;51.336;-0.846;2024-01-10T00:24:00;101895.0;;;0.44;84.2
79118;BME280;68523;51.336;-0.846;2024-01-10T00:27:00;101895.0;;;0.29;84.8
79118;BME280;68523;51.336;-0.846;2024-01-10T00:30:00;101895.0;;;0.35;84.6
79118;BME280;68523;51.336;-0.846;2024-01-10T00:33:00;101885.0;;;0.31;84.9
79118;BME280;68523;51.336;-0.846;2024-01-10T00:36:00;101885.0;;;0.24;85.3
79118;BME280;68523;51.336;-0.846;2024-01-10T00:39:00;101895.0;;;0.29;85.0
79118;BME280;68523;51.336;-0.846;2024-01-10T00:42:00;101895.0;;;0.30;85.0
79118;BME280;68523;51.336;-0.846;2024-01-10T00:45:00;101885.0;;;0.20;85.4
79118;BME280;68523;51.336;-0.846;2024-01-10T00:48:00;101885.0;;;0.24;85.3
79118;BME280;68523;51.336;-0.846;2024-01-10T00:51:00;101885.0;;;0.15;85.5
79118;BME280;68523;51.336;-0.846;2024-01-10T00:54:00;101885.0;;;0.19;85.7
79118;BME280;68523;51.336;-0.846;2024-01-10T00:57:00;101885.0;;;0.25;85.4
79118;BME280;68523;51.336;-0.846;2024-01-10T01:00:00;101885.0;;;0.30;85.2
79118;BME280;68523;51.336;-0.846;2024-01-10T01:03:00;101875.00000000001;;;0.26;85.4
79118;BME280;68523;51.336;-0.846;2024-01-10T01:06:00;101875.00000000001;;;0.19;85.8
79118;BME280;68523;51.336;-0.846;2024-01-10T01:09:00;101875.00000000001;;;0.09;86.1
79118;BME280;68523;51.336;-0.846;2024-01-10T01:12:00;101875.00000000001;;;0.09;86.2
79118;BME280;68523;51.336;-0.846;2024-01-10T01:15:00;101875.00000000001;;;0.10;86.3
79118;BME280;68523;51.336;-0.846;2024-01-10T01:18:00;101875.00000000001;;;0.08;86.3
79118;BME280;68523;51.336;-0.846;2024-01-10T01:21:00;101875.00000000001;;;0.08;86.4
79118;BME280;68523;51.336;-0.846;2024-01-10T01:24:00;101875.00000000001;;;0.11;86.3
79118;BME280;68523;51.336;-0.846;2024-01-10T01:27:00;101875.00000000001;;;0.04;86.5
79118;BME280;68523;51.336;-0.846;2024-01-10T01:30:00;101875.00000000001;;;-0.03;86.8
79118;BME280;68523;51.336;-0.846;2024-01-10T01:33:00;101885.0;;;-0.07;86.9
79118;BME280;68523;51.336;-0.846;2024-01-10T01:36:00;101875.00000000001;;;-0.11;87.1
79118;BME280;68523;51.336;-0.846;2024-01-10T01:39:00;101875.00000000001;;;-0.09;87.0
79118;BME280;68523;51.336;-0.846;2024-01-10T01:42:00;101875.00000000001;;;-0.08;87.0
79118;BME280;68523;51.336;-0.846;2024-01-10T01:45:00;101875.00000000001;;;-0.12;87.1
79118;BME280;68523;51.336;-0.846;2024-01-10T01:48:00;101865.0;;;-0.03;86.8
79118;BME280;68523;51.336;-0.846;2024-01-10T01:51:02;101875.00000000001;;;-0.14;87.4
79118;BME280;68523;51.336;-0.846;2024-01-10T01:54:00;101875.00000000001;;;-0.21;87.5
79118;BME280;68523;51.336;-0.846;2024-01-10T01:57:00;101875.00000000001;;;-0.22;87.4
79118;BME280;68523;51.336;-0.846;2024-01-10T02:00:01;101875.00000000001;;;-0.21;87.4
79118;BME280;68523;51.336;-0.846;2024-01-10T02:03:03;101875.00000000001;;;-0.28;87.8
79118;BME280;68523;51.336;-0.846;2024-01-10T02:06:00;101875.00000000001;;;-0.36;88.0
79118;BME280;68523;51.336;-0.846;2024-01-10T02:09:00;101875.00000000001;;;-0.39;88.0
79118;BME280;68523;51.336;-0.846;2024-01-10T02:12:00;101875.00000000001;;;-0.49;88.3
79118;BME280;68523;51.336;-0.846;2024-01-10T02:15:00;101875.00000000001;;;-0.41;88.1
79118;BME280;68523;51.336;-0.846;2024-01-10T02:18:00;101875.00000000001;;;-0.42;88.0
79118;BME280;68523;51.336;-0.846;2024-01-10T02:21:00;101875.00000000001;;;-0.36;88.0
79118;BME280;68523;51.336;-0.846;2024-01-10T02:24:00;101865.0;;;-0.38;88.0
79118;BME280;68523;51.336;-0.846;2024-01-10T02:27:00;101865.0;;;-0.36;87.9
79118;BME280;68523;51.336;-0.846;2024-01-10T02:30:02;101865.0;;;-0.30;87.8
79118;BME280;68523;51.336;-0.846;2024-01-10T02:33:00;101865.0;;;-0.49;88.2
79118;BME280;68523;51.336;-0.846;2024-01-10T02:36:00;101855.0;;;-0.50;88.4
79118;BME280;68523;51.336;-0.846;2024-01-10T02:39:00;101855.0;;;-0.49;88.0
79118;BME280;68523;51.336;-0.846;2024-01-10T02:42:00;101855.0;;;-0.65;88.7
79118;BME280;68523;51.336;-0.846;2024-01-10T02:45:00;101855.0;;;-0.63;88.5
79118;BME280;68523;51.336;-0.846;2024-01-10T02:48:00;101855.0;;;-0.70;88.8
79118;BME280;68523;51.336;-0.846;2024-01-10T02:51:00;101855.0;;;-0.64;88.7
79118;BME280;68523;51.336;-0.846;2024-01-10T02:54:00;101855.0;;;-0.77;89.1
79118;BME280;68523;51.336;-0.846;2024-01-10T02:57:00;101855.0;;;-0.90;89.4
79118;BME280;68523;51.336;-0.846;2024-01-10T03:00:00;101855.0;;;-0.88;89.3
79118;BME280;68523;51.336;-0.846;2024-01-10T03:03:00;101855.0;;;-0.92;89.7
79118;BME280;68523;51.336;-0.846;2024-01-10T03:06:00;101855.0;;;-1.06;90.0
79118;BME280;68523;51.336;-0.846;2024-01-10T03:09:00;101855.0;;;-1.00;90.0
79118;BME280;68523;51.336;-0.846;2024-01-10T03:12:00;101845.0;;;-0.95;89.8
79118;BME280;68523;51.336;-0.846;2024-01-10T03:15:00;101855.0;;;-1.12;90.3
79118;BME280;68523;51.336;-0.846;2024-01-10T03:18:00;101855.0;;;-1.08;90.3
79118;BME280;68523;51.336;-0.846;2024-01-10T03:21:00;101855.0;;;-1.11;90.2
79118;BME280;68523;51.336;-0.846;2024-01-10T03:24:01;101855.0;;;-1.08;90.3
79118;BME280;68523;51.336;-0.846;2024-01-10T03:27:01;101855.0;;;-1.14;90.3
79118;BME280;68523;51.336;-0.846;2024-01-10T03:30:00;101855.0;;;-1.04;90.2
79118;BME280;68523;51.336;-0.846;2024-01-10T03:33:00;101855.0;;;-0.93;89.7
79118;BME280;68523;51.336;-0.846;2024-01-10T03:36:00;101855.0;;;-1.16;90.4
79118;BME280;68523;51.336;-0.846;2024-01-10T03:39:00;101855.0;;;-1.19;90.8
79118;BME280;68523;51.336;-0.846;2024-01-10T03:42:00;101845.0;;;-1.07;90.5
79118;BME280;68523;51.336;-0.846;2024-01-10T03:45:00;101855.0;;;-1.12;90.6
79118;BME280;68523;51.336;-0.846;2024-01-10T03:48:00;101855.0;;;-1.00;90.4
79118;BME280;68523;51.336;-0.846;2024-01-10T03:51:00;101845.0;;;-0.99;90.3
79118;BME280;68523;51.336;-0.846;2024-01-10T03:54:00;101845.0;;;-0.98;90.3
79118;BME280;68523;51.336;-0.846;2024-01-10T03:57:00;101845.0;;;-0.90;90.2
79118;BME280;68523;51.336;-0.846;2024-01-10T04:00:00;101845.0;;;-1.05;90.6
79118;BME280;68523;51.336;-0.846;2024-01-10T04:03:00;101845.0;;;-0.97;90.7
79118;BME280;68523;51.336;-0.846;2024-01-10T04:06:00;101845.0;;;-0.84;90.5
79118;BME280;68523;51.336;-0.846;2024-01-10T04:09:00;101845.0;;;-0.78;90.3
79118;BME280;68523;51.336;-0.846;2024-01-10T04:12:00;101835.0;;;-0.84;90.8
79118;BME280;68523;51.336;-0.846;2024-01-10T04:15:00;101845.0;;;-0.77;90.5
79118;BME280;68523;51.336;-0.846;2024-01-10T04:18:00;101835.0;;;-0.74;90.5
79118;BME280;68523;51.336;-0.846;2024-01-10T04:21:00;101835.0;;;-0.83;90.5
79118;BME280;68523;51.336;-0.846;2024-01-10T04:24:00;101835.0;;;-0.77;90.1
79118;BME280;68523;51.336;-0.846;2024-01-10T04:27:00;101835.0;;;-0.81;90.4
79118;BME280;68523;51.336;-0.846;2024-01-10T04:30:00;101835.0;;;-0.90;90.5
79118;BME280;68523;51.336;-0.846;2024-01-10T04:33:00;101825.00000000001;;;-0.82;90.0
79118;BME280;68523;51.336;-0.846;2024-01-10T04:36:00;101825.00000000001;;;-0.83;89.9
79118;BME280;68523;51.336;-0.846;2024-01-10T04:39:00;101825.00000000001;;;-0.85;90.2
79118;BME280;68523;51.336;-0.846;2024-01-10T04:42:00;101835.0;;;-0.99;90.4
79118;BME280;68523;51.336;-0.846;2024-01-10T04:45:00;101825.00000000001;;;-1.08;90.5
79118;BME280;68523;51.336;-0.846;2024-01-10T04:48:00;101825.00000000001;;;-0.95;89.7
79118;BME280;68523;51.336;-0.846;2024-01-10T04:51:00;101825.00000000001;;;-0.98;90.0
79118;BME280;68523;51.336;-0.846;2024-01-10T04:54:00;101835.0;;;-1.03;89.8
79118;BME280;68523;51.336;-0.846;2024-01-10T04:57:00;101835.0;;;-1.10;89.9
79118;BME280;68523;51.336;-0.846;2024-01-10T05:00:01;101835.0;;;-1.06;89.7
79118;BME280;68523;51.336;-0.846;2024-01-10T05:03:00;101835.0;;;-1.07;89.7
79118;BME280;68523;51.336;-0.846;2024-01-10T05:06:00;101835.0;;;-1.04;89.3
79118;BME280;68523;51.336;-0.846;2024-01-10T05:09:00;101845.0;;;-1.09;89.1
79118;BME280;68523;51.336;-0.846;2024-01-10T05:12:00;101845.0;;;-1.09;89.2
79118;BME280;68523;51.336;-0.846;2024-01-10T05:15:00;101845.0;;;-1.10;88.9
79118;BME280;68523;51.336;-0.846;2024-01-10T05:18:00;101835.0;;;-1.29;89.3
79118;BME280;68523;51.336;-0.846;2024-01-10T05:21:00;101835.0;;;-1.27;89.3
79118;BME280;68523;51.336;-0.846;2024-01-10T05:24:00;101835.0;;;-1.34;89.4
79118;BME280;68523;51.336;-0.846;2024-01-10T05:27:00;101835.0;;;-1.35;89.5
79118;BME280;68523;51.336;-0.846;2024-01-10T05:30:00;101835.0;;;-1.27;89.1
79118;BME280;68523;51.336;-0.846;2024-01-10T05:33:00;101825.00000000001;;;-1.23;88.7
79118;BME280;68523;51.336;-0.846;2024-01-10T05:36:00;101835.0;;;-1.16;88.1
79118;BME280;68523;51.336;-0.846;2024-01-10T05:39:00;101835.0;;;-1.25;88.2
79118;BME280;68523;51.336;-0.846;2024-01-10T05:42:00;101825.00000000001;;;-1.16;87.8
79118;BME280;68523;51.336;-0.846;2024-01-10T05:45:00;101825.00000000001;;;-0.96;87.1
79118;BME280;68523;51.336;-0.846;2024-01-10T05:48:00;101835.0;;;-0.98;86.9
79118;BME280;68523;51.336;-0.846;2024-01-10T05:51:01;101825.00000000001;;;-0.99;86.7
79118;BME280;68523;51.336;-0.846;2024-01-10T05:54:00;101835.0;;;-0.94;86.6
79118;BME280;68523;51.336;-0.846;2024-01-10T05:57:00;101835.0;;;-1.02;87.0
79118;BME280;68523;51.336;-0.846;2024-01-10T06:00:00;101825.00000000001;;;-0.94;86.6
79118;BME280;68523;51.336;-0.846;2024-01-10T06:03:00;101825.00000000001;;;-0.99;86.6
79118;BME280;68523;51.336;-0.846;2024-01-10T06:06:00;101825.00000000001;;;-0.89;86.4
79118;BME280;68523;51.336;-0.846;2024-01-10T06:09:00;101825.00000000001;;;-0.85;86.0
79118;BME280;68523;51.336;-0.846;2024-01-10T06:12:00;101835.0;;;-0.62;84.7
79118;BME280;68523;51.336;-0.846;2024-01-10T06:15:00;101825.00000000001;;;-0.66;85.0
79118;BME280;68523;51.336;-0.846;2024-01-10T06:18:00;101825.00000000001;;;-0.70;85.3
79118;BME280;68523;51.336;-0.846;2024-01-10T06:21:00;101825.00000000001;;;-0.61;84.9
79118;BME280;68523;51.336;-0.846;2024-01-10T06:24:00;101825.00000000001;;;-0.68;84.9
79118;BME280;68523;51.336;-0.846;2024-01-10T06:27:00;101825.00000000001;;;-0.66;85.1
79118;BME280;68523;51.336;-0.846;2024-01-10T06:30:00;101835.0;;;-0.50;84.2
79118;BME280;68523;51.336;-0.846;2024-01-10T06:33:00;101835.0;;;-0.53;84.2
79118;BME280;68523;51.336;-0.846;2024-01-10T06:36:00;101835.0;;;-0.41;83.8
79118;BME280;68523;51.336;-0.846;2024-01-10T06:39:00;101835.0;;;-0.41;83.9
79118;BME280;68523;51.336;-0.846;2024-01-10T06:42:00;101835.0;;;-0.43;83.9
79118;BME280;68523;51.336;-0.846;2024-01-10T06:45:00;101835.0;;;-0.49;84.1
79118;BME280;68523;51.336;-0.846;2024-01-10T06:48:00;101835.0;;;-0.49;84.1
79118;BME280;68523;51.336;-0.846;2024-01-10T06:51:00;101835.0;;;-0.55;84.7
79118;BME280;68523;51.336;-0.846;2024-01-10T06:54:00;101835.0;;;-0.41;84.0
79118;BME280;68523;51.336;-0.846;2024-01-10T06:57:00;101835.0;;;-0.51;84.6
79118;BME280;68523;51.336;-0.846;2024-01-10T07:00:00;101835.0;;;-0.47;84.5
79118;BME280;68523;51.336;-0.846;2024-01-10T07:03:01;101835.0;;;-0.37;83.9
79118;BME280;68523;51.336;-0.846;2024-01-10T07:06:00;101835.0;;;-0.32;84.0
79118;BME280;68523;51.336;-0.846;2024-01-10T07:09:00;101835.0;;;-0.40;84.0
79118;BME280;68523;51.336;-0.846;2024-01-10T07:12:00;101845.0;;;-0.35;83.9
79118;BME280;68523;51.336;-0.846;2024-01-10T07:15:00;101845.0;;;-0.36;83.9
79118;BME280;68523;51.336;-0.846;2024-01-10T07:18:00;101845.0;;;-0.41;84.1
79118;BME280;68523;51.336;-0.846;2024-01-10T07:21:00;101845.0;;;-0.36;84.0
79118;BME280;68523;51.336;-0.846;2024-01-10T07:24:00;101845.0;;;-0.25;83.6
79118;BME280;68523;51.336;-0.846;2024-01-10T07:27:00;101845.0;;;-0.22;83.1
79118;BME280;68523;51.336;-0.846;2024-01-10T07:30:00;101855.0;;;-0.17;82.9
79118;BME280;68523;51.336;-0.846;2024-01-10T07:33:00;101855.0;;;-0.37;83.8
79118;BME280;68523;51.336;-0.846;2024-01-10T07:36:00;101855.0;;;-0.27;83.9
79118;BME280;68523;51.336;-0.846;2024-01-10T07:39:00;101855.0;;;-0.28;83.7
79118;BME280;68523;51.336;-0.846;2024-01-10T07:42:00;101855.0;;;-0.33;83.9
79118;BME280;68523;51.336;-0.846;2024-01-10T07:45:00;101855.0;;;-0.37;84.2
79118;BME280;68523;51.336;-0.846;2024-01-10T07:48:00;101855.0;;;-0.42;84.2
79118;BME280;68523;51.336;-0.846;2024-01-10T07:51:00;101855.0;;;-0.45;84.2
79118;BME280;68523;51.336;-0.846;2024-01-10T07:54:00;101855.0;;;-0.21;83.4
79118;BME280;68523;51.336;-0.846;2024-01-10T07:57:00;101865.0;;;-0.27;83.6
79118;BME280;68523;51.336;-0.846;2024-01-10T08:00:00;101865.0;;;-0.29;83.7
79118;BME280;68523;51.336;-0.846;2024-01-10T08:03:00;101865.0;;;-0.30;84.0
79118;BME280;68523;51.336;-0.846;2024-01-10T08:06:00;101865.0;;;-0.34;84.4
79118;BME280;68523;51.336;-0.846;2024-01-10T08:09:00;101865.0;;;-0.41;84.3
79118;BME280;68523;51.336;-0.846;2024-01-10T08:12:00;101875.00000000001;;;-0.37;84.3
79118;BME280;68523;51.336;-0.846;2024-01-10T08:15:00;101875.00000000001;;;-0.27;84.1
79118;BME280;68523;51.336;-0.846;2024-01-10T08:18:00;101875.00000000001;;;-0.15;83.4
79118;BME280;68523;51.336;-0.846;2024-01-10T08:21:00;101885.0;;;-0.12;83.4
79118;BME280;68523;51.336;-0.846;2024-01-10T08:24:01;101885.0;;;-0.12;83.4
79118;BME280;68523;51.336;-0.846;2024-01-10T08:27:00;101885.0;;;-0.12;83.4
79118;BME280;68523;51.336;-0.846;2024-01-10T08:30:00;101875.00000000001;;;0.13;82.7
79118;BME280;68523;51.336;-0.846;2024-01-10T08:33:00;101885.0;;;0.18;82.5
79118;BME280;68523;51.336;-0.846;2024-01-10T08:36:00;101885.0;;;0.29;82.0
79118;BME280;68523;51.336;-0.846;2024-01-10T08:39:00;101885.0;;;0.20;82.6
79118;BME280;68523;51.336;-0.846;2024-01-10T08:42:00;101885.0;;;0.26;82.5
79118;BME280;68523;51.336;-0.846;2024-01-10T08:45:00;101895.0;;;0.30;82.7
79118;BME280;68523;51.336;-0.846;2024-01-10T08:48:00;101885.0;;;0.43;82.1
79118;BME280;68523;51.336;-0.846;2024-01-10T08:51:00;101885.0;;;0.51;81.8
79118;BME280;68523;51.336;-0.846;2024-01-10T08:54:00;101885.0;;;0.41;82.4
79118;BME280;68523;51.336;-0.846;2024-01-10T08:57:00;101885.0;;;0.55;81.9
79118;BME280;68523;51.336;-0.846;2024-01-10T09:00:00;101885.0;;;0.60;81.9
79118;BME280;68523;51.336;-0.846;2024-01-10T09:03:00;101885.0;;;0.75;81.2
79118;BME280;68523;51.336;-0.846;2024-01-10T09:06:00;101885.0;;;0.76;81.4
79118;BME280;68523;51.336;-0.846;2024-01-10T09:09:00;101885.0;;;0.92;80.8
79118;BME280;68523;51.336;-0.846;2024-01-10T09:12:00;101885.0;;;0.93;80.7
79118;BME280;68523;51.336;-0.846;2024-01-10T09:15:00;101895.0;;;1.02;80.6
79118;BME280;68523;51.336;-0.846;2024-01-10T09:18:00;101885.0;;;1.08;80.4
79118;BME280;68523;51.336;-0.846;2024-01-10T09:21:00;101885.0;;;1.25;79.8
79118;BME280;68523;51.336;-0.846;2024-01-10T09:24:00;101895.0;;;1.35;79.6
79118;BME280;68523;51.336;-0.846;2024-01-10T09:27:00;101895.0;;;1.34;80.0
79118;BME280;68523;51.336;-0.846;2024-01-10T09:30:00;101895.0;;;1.58;79.3
79118;BME280;68523;51.336;-0.846;2024-01-10T09:33:00;101885.0;;;1.65;79.2
79118;BME280;68523;51.336;-0.846;2024-01-10T09:36:00;101895.0;;;1.65;78.9
79118;BME280;68523;51.336;-0.846;2024-01-10T09:39:00;101885.0;;;1.75;79.1
79118;BME280;68523;51.336;-0.846;2024-01-10T09:42:00;101885.0;;;1.78;78.8
79118;BME280;68523;51.336;-0.846;2024-01-10T09:45:00;101885.0;;;1.75;79.2
79118;BME280;68523;51.336;-0.846;2024-01-10T09:48:00;101895.0;;;1.75;79.4
79118;BME280;68523;51.336;-0.846;2024-01-10T09:51:00;101885.0;;;1.77;79.4
79118;BME280;68523;51.336;-0.846;2024-01-10T09:54:02;101895.0;;;1.92;78.9
79118;BME280;68523;51.336;-0.846;2024-01-10T09:57:00;101895.0;;;1.87;79.5
79118;BME280;68523;51.336;-0.846;2024-01-10T10:00:00;101895.0;;;1.94;79.6
79118;BME280;68523;51.336;-0.846;2024-01-10T10:03:00;101895.0;;;2.00;79.4
79118;BME280;68523;51.336;-0.846;2024-01-10T10:06:00;101905.0;;;2.03;79.5
79118;BME280;68523;51.336;-0.846;2024-01-10T10:09:00;101905.0;;;2.14;79.1
79118;BME280;68523;51.336;-0.846;2024-01-10T10:12:00;101905.0;;;2.15;79.2
79118;BME280;68523;51.336;-0.846;2024-01-10T10:15:10;101915.0;;;2.21;79.4
79118;BME280;68523;51.336;-0.846;2024-01-10T10:18:00;101905.0;;;2.25;79.0
79118;BME280;68523;51.336;-0.846;2024-01-10T10:21:08;101905.0;;;2.34;78.4
79118;BME280;68523;51.336;-0.846;2024-01-10T10:24:01;101905.0;;;2.45;78.5
79118;BME280;68523;51.336;-0.846;2024-01-10T10:27:00;101905.0;;;2.49;78.3
79118;BME280;68523;51.336;-0.846;2024-01-10T10:30:00;101905.0;;;2.46;78.2
79118;BME280;68523;51.336;-0.846;2024-01-10T10:33:01;101905.0;;;2.59;78.2
79118;BME280;68523;51.336;-0.846;2024-01-10T10:36:00;101895.0;;;2.56;77.4
79118;BME280;68523;51.336;-0.846;2024-01-10T10:39:00;101895.0;;;2.67;77.9
79118;BME280;68523;51.336;-0.846;2024-01-10T10:42:00;101895.0;;;2.65;78.0
79118;BME280;68523;51.336;-0.846;2024-01-10T10:45:03;101895.0;;;2.65;77.6
79118;BME280;68523;51.336;-0.846;2024-01-10T10:48:01;101895.0;;;2.72;77.6
79118;BME280;68523;51.336;-0.846;2024-01-10T10:51:05;101905.0;;;2.75;78.2
79118;BME280;68523;51.336;-0.846;2024-01-10T10:54:00;101905.0;;;2.86;77.0
79118;BME280;68523;51.336;-0.846;2024-01-10T10:57:01;101895.0;;;2.86;77.4
79118;BME280;68523;51.336;-0.846;2024-01-10T11:00:00;101895.0;;;2.93;77.7
79118;BME280;68523;51.336;-0.846;2024-01-10T11:03:02;101895.0;;;2.99;77.4
79118;BME280;68523;51.336;-0.846;2024-01-10T11:06:02;101895.0;;;3.11;76.2
79118;BME280;68523;51.336;-0.846;2024-01-10T11:09:04;101895.0;;;3.19;75.7
79118;BME280;68523;51.336;-0.846;2024-01-10T11:12:15;101895.0;;;3.14;75.4
79118;BME280;68523;51.336;-0.846;2024-01-10T11:15:14;101895.0;;;3.15;76.0
79118;BME280;68523;51.336;-0.846;2024-01-10T11:18:14;101895.0;;;3.17;76.8
79118;BME280;68523;51.336;-0.846;2024-01-10T11:21:11;101895.0;;;3.19;75.7
79118;BME280;68523;51.336;-0.846;2024-01-10T11:24:01;101895.0;;;3.24;75.9
79118;BME280;68523;51.336;-0.846;2024-01-10T11:27:11;101885.0;;;3.30;75.7
79118;BME280;68523;51.336;-0.846;2024-01-10T11:30:00;101885.0;;;3.32;75.7
79118;BME280;68523;51.336;-0.846;2024-01-10T11:33:01;101885.0;;;3.46;75.1
79118;BME280;68523;51.336;-0.846;2024-01-10T11:36:08;101885.0;;;3.38;75.4
79118;BME280;68523;51.336;-0.846;2024-01-10T11:39:03;101885.0;;;3.41;74.3
79118;BME280;68523;51.336;-0.846;2024-01-10T11:42:00;101885.0;;;3.45;75.1
79118;BME280;68523;51.336;-0.846;2024-01-10T11:45:00;101885.0;;;3.50;74.7
79118;BME280;68523;51.336;-0.846;2024-01-10T11:48:00;101875.00000000001;;;3.56;74.9
79118;BME280;68523;51.336;-0.846;2024-01-10T11:51:00;101875.00000000001;;;3.63;74.7
79118;BME280;68523;51.336;-0.846;2024-01-10T11:54:00;101875.00000000001;;;3.89;73.1
79118;BME280;68523;51.336;-0.846;2024-01-10T11:57:01;101875.00000000001;;;3.89;72.6
79118;BME280;68523;51.336;-0.846;2024-01-10T12:00:00;101865.0;;;4.36;71.5
79118;BME280;68523;51.336;-0.846;2024-01-10T12:03:00;101865.0;;;4.40;70.9
79118;BME280;68523;51.336;-0.846;2024-01-10T12:06:00;101865.0;;;4.66;70.1
79118;BME280;68523;51.336;-0.846;2024-01-10T12:09:00;101865.0;;;4.64;70.1
79118;BME280;68523;51.336;-0.846;2024-01-10T12:12:00;101855.0;;;4.78;69.1
79118;BME280;68523;51.336;-0.846;2024-01-10T12:15:00;101845.0;;;4.84;69.1
79118;BME280;68523;51.336;-0.846;2024-01-10T12:18:00;101845.0;;;4.25;70.8
79118;BME280;68523;51.336;-0.846;2024-01-10T12:21:00;101845.0;;;4.24;70.9
79118;BME280;68523;51.336;-0.846;2024-01-10T12:24:00;101845.0;;;4.05;71.7
79118;BME280;68523;51.336;-0.846;2024-01-10T12:27:00;101845.0;;;4.02;72.2
79118;BME280;68523;51.336;-0.846;2024-01-10T12:30:00;101845.0;;;4.06;71.7
79118;BME280;68523;51.336;-0.846;2024-01-10T12:33:00;101845.0;;;3.99;71.9
79118;BME280;68523;51.336;-0.846;2024-01-10T12:36:06;101835.0;;;3.90;72.3
79118;BME280;68523;51.336;-0.846;2024-01-10T12:39:00;101835.0;;;3.95;71.4
79118;BME280;68523;51.336;-0.846;2024-01-10T12:42:00;101835.0;;;3.93;71.8
79118;BME280;68523;51.336;-0.846;2024-01-10T12:45:00;101825.00000000001;;;3.86;71.4
79118;BME280;68523;51.336;-0.846;2024-01-10T12:48:00;101815.0;;;3.89;72.0
79118;BME280;68523;51.336;-0.846;2024-01-10T12:51:00;101805.0;;;3.87;71.1
79118;BME280;68523;51.336;-0.846;2024-01-10T12:54:00;101815.0;;;3.97;71.2
79118;BME280;68523;51.336;-0.846;2024-01-10T12:57:00;101815.0;;;3.98;70.7
79118;BME280;68523;51.336;-0.846;2024-01-10T13:00:00;101805.0;;;3.97;71.2
79118;BME280;68523;51.336;-0.846;2024-01-10T13:03:00;101805.0;;;3.89;70.7
79118;BME280;68523;51.336;-0.846;2024-01-10T13:06:00;101795.0;;;3.93;70.4
79118;BME280;68523;51.336;-0.846;2024-01-10T13:09:00;101805.0;;;4.05;69.7
79118;BME280;68523;51.336;-0.846;2024-01-10T13:12:00;101805.0;;;4.05;69.8
79118;BME280;68523;51.336;-0.846;2024-01-10T13:15:00;101805.0;;;3.97;70.1
79118;BME280;68523;51.336;-0.846;2024-01-10T13:18:00;101805.0;;;4.00;69.8
79118;BME280;68523;51.336;-0.846;2024-01-10T13:21:00;101805.0;;;3.98;69.5
79118;BME280;68523;51.336;-0.846;2024-01-10T13:24:00;101795.0;;;3.96;70.4
79118;BME280;68523;51.336;-0.846;2024-01-10T13:27:00;101795.0;;;4.04;69.9
79118;BME280;68523;51.336;-0.846;2024-01-10T13:30:00;101785.0;;;4.01;69.8
79118;BME280;68523;51.336;-0.846;2024-01-10T13:33:00;101785.0;;;3.95;69.8
79118;BME280;68523;51.336;-0.846;2024-01-10T13:36:00;101775.00000000001;;;3.96;70.2
79118;BME280;68523;51.336;-0.846;2024-01-10T13:39:00;101775.00000000001;;;3.99;70.4
79118;BME280;68523;51.336;-0.846;2024-01-10T13:42:00;101765.0;;;4.01;70.3
79118;BME280;68523;51.336;-0.846;2024-01-10T13:45:00;101775.00000000001;;;4.00;70.6
79118;BME280;68523;51.336;-0.846;2024-01-10T13:48:00;101775.00000000001;;;4.04;70.5
79118;BME280;68523;51.336;-0.846;2024-01-10T13:51:00;101775.00000000001;;;4.08;69.8
79118;BME280;68523;51.336;-0.846;2024-01-10T13:54:00;101775.00000000001;;;4.00;70.7
79118;BME280;68523;51.336;-0.846;2024-01-10T13:57:00;101775.00000000001;;;4.03;69.9
79118;BME280;68523;51.336;-0.846;2024-01-10T14:00:00;101775.00000000001;;;4.00;70.2
79118;BME280;68523;51.336;-0.846;2024-01-10T14:03:00;101775.00000000001;;;4.00;69.3
79118;BME280;68523;51.336;-0.846;2024-01-10T14:06:00;101775.00000000001;;;4.02;69.7
79118;BME280;68523;51.336;-0.846;2024-01-10T14:09:00;101775.00000000001;;;4.00;69.9
79118;BME280;68523;51.336;-0.846;2024-01-10T14:12:00;101775.00000000001;;;3.97;70.9
79118;BME280;68523;51.336;-0.846;2024-01-10T14:15:00;101775.00000000001;;;4.01;70.4
79118;BME280;68523;51.336;-0.846;2024-01-10T14:18:00;101775.00000000001;;;4.02;70.6
79118;BME280;68523;51.336;-0.846;2024-01-10T14:21:00;101775.00000000001;;;4.01;70.8
79118;BME280;68523;51.336;-0.846;2024-01-10T14:24:00;101775.00000000001;;;4.02;71.6
79118;BME280;68523;51.336;-0.846;2024-01-10T14:27:00;101785.0;;;3.96;72.5
79118;BME280;68523;51.336;-0.846;2024-01-10T14:30:00;101785.0;;;3.96;72.1
79118;BME280;68523;51.336;-0.846;2024-01-10T14:33:00;101785.0;;;3.92;72.8
79118;BME280;68523;51.336;-0.846;2024-01-10T14:36:00;101785.0;;;3.88;72.9
79118;BME280;68523;51.336;-0.846;2024-01-10T14:39:00;101785.0;;;3.92;72.2
79118;BME280;68523;51.336;-0.846;2024-01-10T14:42:00;101785.0;;;3.90;71.9
79118;BME280;68523;51.336;-0.846;2024-01-10T14:45:00;101775.00000000001;;;3.98;71.8
79118;BME280;68523;51.336;-0.846;2024-01-10T14:48:00;101775.00000000001;;;3.90;72.4
79118;BME280;68523;51.336;-0.846;2024-01-10T14:51:00;101775.00000000001;;;3.87;72.2
79118;BME280;68523;51.336;-0.846;2024-01-10T14:54:00;101775.00000000001;;;3.93;71.9
79118;BME280;68523;51.336;-0.846;2024-01-10T14:57:00;101775.00000000001;;;3.90;72.0
79118;BME280;68523;51.336;-0.846;2024-01-10T15:00:00;101775.00000000001;;;3.86;72.2
79118;BME280;68523;51.336;-0.846;2024-01-10T15:03:00;101775.00000000001;;;3.98;71.1
79118;BME280;68523;51.336;-0.846;2024-01-10T15:06:00;101785.0;;;3.82;72.2
79118;BME280;68523;51.336;-0.846;2024-01-10T15:09:00;101785.0;;;3.81;71.6
79118;BME280;68523;51.336;-0.846;2024-01-10T15:12:00;101785.0;;;3.76;71.9
79118;BME280;68523;51.336;-0.846;2024-01-10T15:15:00;101785.0;;;3.84;71.4
79118;BME280;68523;51.336;-0.846;2024-01-10T15:18:00;101785.0;;;3.74;71.7
79118;BME280;68523;51.336;-0.846;2024-01-10T15:21:00;101795.0;;;3.63;72.4
79118;BME280;68523;51.336;-0.846;2024-01-10T15:24:00;101785.0;;;3.63;71.6
79118;BME280;68523;51.336;-0.846;2024-01-10T15:27:00;101795.0;;;3.75;70.6